Observations for LUTON AIRPORT, United Kingdom (EGGW)

EGGW 190320Z AUTO 20009KT 9999 BKN009 OVC014 17/15 Q1011
EGGW 190250Z AUTO 19009KT 150V210 9999 BKN012 OVC026 17/14 Q1011
EGGW 190220Z AUTO 20010KT 170V230 8000 -RA BKN014 OVC031 17/14 Q1011
EGGW 190150Z AUTO 20010KT 140V240 9999 BKN019 BKN031 17/14 Q1011
EGGW 190120Z AUTO 20009KT 160V240 9999 FEW019 SCT042 17/14 Q1011
EGGW 190050Z AUTO 20011KT 160V230 9999 NCD 17/14 Q1011  
EGGW 190020Z AUTO 21013KT 9999 FEW048 17/14 Q1011   
EGGW 182350Z AUTO 21012KT 9999 NCD 17/14 Q1012  
EGGW 182320Z AUTO 20012KT 9999 FEW049 17/14 Q1012   
EGGW 182250Z AUTO 20011KT 170V230 9999 NCD 17/14 Q1012  
EGGW 182220Z AUTO 21012G22KT 9999 FEW021 17/14 Q1012
EGGW 182150Z AUTO 20013KT 160V230 9999 FEW019 BKN048 17/14 Q1012
EGGW 182120Z AUTO 21014KT 9999 SCT018 OVC046 17/14 Q1012
EGGW 182050Z AUTO 21013KT 9999 SCT019 BKN045 17/14 Q1011
EGGW 182020Z AUTO 21014KT 9999 FEW022 BKN041 18/14 Q1011
EGGW 181950Z AUTO 20012KT 9999 FEW018 BKN043 17/14 Q1011
EGGW 181920Z AUTO 20011KT 9999 SCT044 18/14 Q1011   
EGGW 181850Z AUTO 21011KT 9999 NCD 18/14 Q1011  
EGGW 181820Z AUTO 21012KT 9999 NCD 18/14 Q1011  
EGGW 181750Z AUTO 21014KT 9999 SCT024 19/13 Q1011   
EGGW 181720Z AUTO 21014KT 9999 BKN022 BKN028 19/14 Q1011
EGGW 181650Z AUTO 22015G25KT 9999 SCT023 BKN028 19/14 Q1011 
EGGW 181620Z AUTO 22018KT 9999 SCT025 SCT033 BKN044 20/14 Q1010 
EGGW 181550Z AUTO 22014G24KT 9999 SCT033 20/13 Q1010
EGGW 181520Z AUTO 21016KT 9999 FEW034 SCT043 21/13 Q1010
EGGW 181450Z AUTO 22015KT 9999 SCT035 BKN046 21/13 Q1010
EGGW 181420Z AUTO 23015KT 9999 BKN034 22/12 Q1010   
EGGW 181350Z AUTO 24018KT 9999 BKN031 21/13 Q1010   
EGGW 181320Z AUTO 24021G31KT 9999 BKN032 22/12 Q1009
EGGW 181250Z AUTO 23017G27KT 9999 NCD 22/12 Q1009   
EGGW 181220Z AUTO 24018KT 9999 FEW035 21/11 Q1009   
EGGW 181150Z AUTO 24018KT 9999 FEW033 20/11 Q1008   
EGGW 181120Z AUTO 23017G27KT 9999 FEW031 20/11 Q1008
EGGW 181050Z AUTO 23017G28KT 9999 BKN028 20/12 Q1008
EGGW 181020Z AUTO 23018G28KT 9999 SCT021 BKN025 19/12 Q1007 
EGGW 180950Z AUTO 23017KT 9999 BKN016 BKN028 19/14 Q1007
EGGW 180920Z 22013KT 9999 OVC012 17/15 Q1006
EGGW 180850Z 21014KT 9999 BKN012 OVC017 17/15 Q1006 
EGGW 180820Z AUTO 21016G26KT 9999 OVC010 17/15 Q1005
EGGW 180750Z AUTO 21017KT 160V230 9999 BKN009 OVC012 17/15 Q1005
EGGW 180720Z AUTO 21016G27KT 7000 BKN008 OVC012 17/15 Q1005 
EGGW 180650Z AUTO 21016G26KT 7000 OVC009 17/15 Q1005
EGGW 180620Z AUTO 20017G30KT 9999 BKN012 OVC019 17/14 Q1004 
EGGW 180550Z AUTO 21016KT 170V230 9999 BKN014 OVC022 18/14 Q1004
EGGW 180520Z AUTO 20019G30KT 9999 BKN018 OVC023 18/14 Q1003 
EGGW 180450Z AUTO 21020G30KT 9999 OVC017 18/15 Q1003
EGGW 180420Z AUTO 20015G25KT 160V220 9999 OVC017 18/15 Q1003
EGGW 180350Z AUTO 19010KT 150V220 9999 BKN018 OVC022 18/15 Q1004
EGGW 180320Z AUTO 18009KT 140V220 9999 SCT018 OVC022 17/14 Q1004
EGGW 180250Z AUTO 19011KT 150V210 9999 BKN017 BKN024 17/14 Q1004